createdAt,value
2017-12-26T00:00:38.257Z,6.26
2017-12-26T00:01:18.830Z,6.24
2017-12-26T00:01:59.420Z,6.24
2017-12-26T00:02:40.043Z,6.28
2017-12-26T00:03:20.625Z,6.26
2017-12-26T00:04:01.242Z,6.28
2017-12-26T00:04:41.825Z,6.33
2017-12-26T00:05:22.448Z,6.39
2017-12-26T00:06:03.053Z,6.39
2017-12-26T00:06:43.631Z,6.45
2017-12-26T00:07:24.211Z,6.39
2017-12-26T00:08:04.813Z,6.41
2017-12-26T00:08:45.401Z,6.38
2017-12-26T00:09:26.005Z,6.39
2017-12-26T00:10:06.583Z,6.33
2017-12-26T00:10:47.163Z,6.35
2017-12-26T00:11:27.744Z,6.45
2017-12-26T00:12:08.347Z,6.36
2017-12-26T00:12:48.917Z,6.38
2017-12-26T00:13:29.486Z,6.42
2017-12-26T00:14:10.085Z,6.36
2017-12-26T00:14:50.654Z,6.38
2017-12-26T00:15:31.341Z,6.38
2017-12-26T00:16:11.909Z,6.38
2017-12-26T00:16:52.490Z,6.36
2017-12-26T00:17:33.119Z,6.3
2017-12-26T00:18:13.718Z,6.42
2017-12-26T00:18:54.333Z,6.36
2017-12-26T00:19:34.959Z,6.44
2017-12-26T00:20:15.520Z,6.35
2017-12-26T00:20:56.102Z,6.28
2017-12-26T00:21:36.709Z,6.41
2017-12-26T00:22:17.277Z,6.3
2017-12-26T00:22:57.879Z,6.33
2017-12-26T00:23:38.447Z,6.33
2017-12-26T00:24:19.015Z,6.31
2017-12-26T00:24:59.580Z,6.27
2017-12-26T00:25:40.164Z,6.27
2017-12-26T00:26:20.743Z,6.36
2017-12-26T00:27:01.320Z,6.33
2017-12-26T00:27:41.898Z,6.26
2017-12-26T00:28:22.477Z,6.26
2017-12-26T00:29:03.047Z,6.31
2017-12-26T00:29:43.628Z,6.26
2017-12-26T00:30:24.198Z,6.2
2017-12-26T00:31:04.772Z,6.16
2017-12-26T00:31:45.390Z,6.26
2017-12-26T00:32:25.953Z,6.24
2017-12-26T00:33:06.527Z,6.12
2017-12-26T00:33:47.087Z,6.14
2017-12-26T00:34:27.653Z,6.16
2017-12-26T00:35:08.289Z,6.17
2017-12-26T00:35:48.902Z,6.08
2017-12-26T00:36:29.506Z,6.11
2017-12-26T00:37:10.093Z,6.05
2017-12-26T00:37:50.694Z,6.14
2017-12-26T00:38:31.304Z,6.09
2017-12-26T00:39:11.896Z,6.14
2017-12-26T00:39:52.495Z,6.16
2017-12-26T00:40:33.083Z,6.11
2017-12-26T00:41:13.670Z,6.11
2017-12-26T00:41:54.267Z,6.11
2017-12-26T00:42:34.874Z,6.11
2017-12-26T00:43:15.459Z,6.14
2017-12-26T00:43:56.042Z,6.08
2017-12-26T00:44:36.636Z,6.08
2017-12-26T00:45:17.202Z,5.99
2017-12-26T00:45:57.780Z,6.02
2017-12-26T00:46:38.365Z,6.02
2017-12-26T00:47:18.940Z,5.93
2017-12-26T00:47:59.537Z,6.04
2017-12-26T00:48:40.122Z,6.02
2017-12-26T00:49:20.741Z,5.99
2017-12-26T00:50:01.327Z,5.99
2017-12-26T00:50:41.919Z,6.01
2017-12-26T00:51:22.506Z,5.99
2017-12-26T00:52:03.116Z,6.04
2017-12-26T00:52:43.764Z,6.01
2017-12-26T00:53:24.355Z,5.98
2017-12-26T00:54:04.927Z,6.01
2017-12-26T00:54:45.518Z,6.01
2017-12-26T00:55:26.099Z,5.99
2017-12-26T00:56:06.704Z,6.02
2017-12-26T00:56:47.290Z,6.04
2017-12-26T00:57:27.891Z,6.04
2017-12-26T00:58:08.481Z,6.02
2017-12-26T00:58:49.097Z,5.9
2017-12-26T00:59:29.680Z,5.99
2017-12-26T01:00:10.255Z,5.97
2017-12-26T01:00:50.871Z,5.94
2017-12-26T01:01:31.459Z,5.93
2017-12-26T01:02:12.064Z,6.02
2017-12-26T01:02:52.626Z,5.97
2017-12-26T01:03:33.193Z,5.91
2017-12-26T01:04:13.758Z,5.93
2017-12-26T01:04:54.391Z,5.94
2017-12-26T01:05:34.913Z,5.98
2017-12-26T01:06:15.490Z,5.9
2017-12-26T01:06:56.087Z,5.93
2017-12-26T01:07:36.667Z,5.91
2017-12-26T01:08:17.239Z,5.89
2017-12-26T01:08:57.856Z,5.9
2017-12-26T01:09:38.445Z,5.84
2017-12-26T01:10:19.034Z,5.87
2017-12-26T01:10:59.617Z,5.76
2017-12-26T01:11:40.212Z,5.89
2017-12-26T01:12:20.781Z,5.94
2017-12-26T01:13:01.358Z,5.93
2017-12-26T01:13:41.932Z,5.9
2017-12-26T01:14:22.516Z,5.93
2017-12-26T01:15:03.138Z,5.9
2017-12-26T01:15:43.691Z,5.89
2017-12-26T01:16:24.243Z,5.89
2017-12-26T01:17:04.844Z,5.93
2017-12-26T01:17:45.430Z,5.89
2017-12-26T01:18:26.031Z,5.89
2017-12-26T01:19:06.604Z,5.94
2017-12-26T01:19:47.193Z,5.89
2017-12-26T01:20:27.775Z,5.94
2017-12-26T01:21:08.349Z,5.97
2017-12-26T01:21:48.922Z,5.91
2017-12-26T01:22:29.486Z,5.91
2017-12-26T01:23:10.058Z,5.9
2017-12-26T01:23:50.646Z,5.94
2017-12-26T01:24:31.212Z,5.97
2017-12-26T01:25:11.816Z,5.9
2017-12-26T01:25:52.404Z,5.9
2017-12-26T01:26:33.026Z,5.87
2017-12-26T01:27:13.533Z,5.93
2017-12-26T01:27:54.112Z,5.91
2017-12-26T01:28:34.690Z,5.94
2017-12-26T01:29:15.254Z,5.91
2017-12-26T01:29:55.854Z,5.89
2017-12-26T01:30:36.416Z,5.86
2017-12-26T01:31:16.989Z,5.79
2017-12-26T01:31:57.575Z,5.86
2017-12-26T01:32:38.178Z,5.86
2017-12-26T01:33:18.741Z,5.84
2017-12-26T01:33:59.337Z,5.83
2017-12-26T01:34:39.936Z,5.86
2017-12-26T01:35:20.526Z,5.89
2017-12-26T01:36:01.110Z,5.73
2017-12-26T01:36:41.698Z,5.76
2017-12-26T01:37:22.251Z,5.8
2017-12-26T01:38:02.823Z,5.75
2017-12-26T01:38:43.386Z,5.69
2017-12-26T01:39:23.980Z,5.82
2017-12-26T01:40:04.558Z,5.75
2017-12-26T01:40:45.151Z,5.79
2017-12-26T01:41:25.754Z,5.79
2017-12-26T01:42:06.346Z,5.75
2017-12-26T01:42:46.920Z,5.8
2017-12-26T01:43:27.482Z,5.75
2017-12-26T01:44:08.032Z,5.75
2017-12-26T01:44:48.590Z,5.69
2017-12-26T01:45:29.197Z,5.75
2017-12-26T01:46:09.822Z,5.76
2017-12-26T01:46:50.419Z,5.82
2017-12-26T01:47:31.021Z,5.72
2017-12-26T01:48:11.595Z,5.71
2017-12-26T01:48:58.885Z,5.66
2017-12-26T01:49:39.469Z,5.64
2017-12-26T01:50:20.064Z,5.57
2017-12-26T01:51:00.639Z,5.61
2017-12-26T01:51:41.201Z,5.59
2017-12-26T01:52:21.784Z,5.66
2017-12-26T01:53:02.402Z,5.65
2017-12-26T01:53:43.001Z,5.62
2017-12-26T01:54:23.599Z,5.61
2017-12-26T01:55:04.180Z,5.62
2017-12-26T01:55:44.762Z,5.64
2017-12-26T01:56:25.373Z,5.65
2017-12-26T01:57:05.927Z,5.65
2017-12-26T01:57:46.483Z,5.66
2017-12-26T01:58:27.054Z,5.57
2017-12-26T01:59:07.621Z,5.61
2017-12-26T01:59:48.188Z,5.51
2017-12-26T02:00:28.812Z,5.65
2017-12-26T02:01:09.347Z,5.5
2017-12-26T02:01:49.947Z,5.57
2017-12-26T02:02:30.534Z,5.53
2017-12-26T02:03:11.131Z,5.56
2017-12-26T02:03:51.768Z,5.53
2017-12-26T02:04:32.356Z,5.48
2017-12-26T02:05:12.936Z,5.56
2017-12-26T02:05:53.523Z,5.54
2017-12-26T02:06:34.145Z,5.44
2017-12-26T02:07:14.730Z,5.38
2017-12-26T02:07:55.340Z,5.43
2017-12-26T02:08:35.901Z,5.44
2017-12-26T02:09:16.509Z,5.46
2017-12-26T02:09:57.088Z,5.5
2017-12-26T02:10:37.643Z,5.41
2017-12-26T02:11:18.203Z,5.39
2017-12-26T02:11:58.778Z,5.41
2017-12-26T02:12:39.344Z,5.36
2017-12-26T02:13:19.910Z,5.44
2017-12-26T02:14:00.510Z,5.39
2017-12-26T02:14:41.075Z,5.41
2017-12-26T02:15:21.647Z,5.39
2017-12-26T02:16:02.219Z,5.39
2017-12-26T02:16:42.827Z,5.44
2017-12-26T02:17:23.397Z,5.44
2017-12-26T02:18:03.940Z,5.43
2017-12-26T02:18:44.515Z,5.39
2017-12-26T02:19:25.106Z,5.43
2017-12-26T02:20:05.713Z,5.38
2017-12-26T02:20:46.352Z,5.47
2017-12-26T02:21:26.958Z,5.44
2017-12-26T02:22:07.555Z,5.38
2017-12-26T02:22:48.156Z,5.43
2017-12-26T02:23:28.742Z,5.39
2017-12-26T02:24:09.339Z,5.38
2017-12-26T02:24:49.911Z,5.29
2017-12-26T02:25:30.484Z,5.29
2017-12-26T02:26:11.047Z,5.28
2017-12-26T02:26:51.606Z,5.26
2017-12-26T02:27:32.186Z,5.28
2017-12-26T02:28:12.746Z,5.26
2017-12-26T02:28:53.364Z,5.2
2017-12-26T02:29:33.932Z,5.26
2017-12-26T02:30:14.509Z,5.26
2017-12-26T02:30:55.084Z,5.25
2017-12-26T02:31:35.666Z,5.28
2017-12-26T02:32:16.256Z,5.23
2017-12-26T02:32:56.890Z,5.25
2017-12-26T02:33:37.475Z,5.3
2017-12-26T02:34:18.078Z,5.25
2017-12-26T02:34:58.682Z,5.21
2017-12-26T02:35:39.254Z,5.25
2017-12-26T02:36:19.846Z,5.23
2017-12-26T02:37:00.385Z,5.26
2017-12-26T02:37:40.947Z,5.26
2017-12-26T02:38:21.504Z,5.29
2017-12-26T02:39:02.070Z,5.38
2017-12-26T02:39:42.646Z,5.28
2017-12-26T02:40:23.243Z,5.32
2017-12-26T02:41:03.826Z,5.29
2017-12-26T02:41:44.425Z,5.26
2017-12-26T02:42:25.003Z,5.25
2017-12-26T02:43:05.563Z,5.29
2017-12-26T02:43:46.199Z,5.32
2017-12-26T02:44:26.760Z,5.23
2017-12-26T02:45:07.311Z,5.29
2017-12-26T02:45:47.876Z,5.25
2017-12-26T02:46:28.466Z,5.39
2017-12-26T02:47:09.088Z,5.33
2017-12-26T02:47:49.670Z,5.28
2017-12-26T02:48:30.245Z,5.35
2017-12-26T02:49:10.838Z,5.33
2017-12-26T02:49:51.431Z,5.33
2017-12-26T02:50:31.990Z,5.29
2017-12-26T02:51:12.548Z,5.28
2017-12-26T02:51:53.128Z,5.38
2017-12-26T02:52:33.685Z,5.35
2017-12-26T02:53:14.241Z,5.33
2017-12-26T02:53:54.811Z,5.29
2017-12-26T02:54:35.403Z,5.32
2017-12-26T02:55:16.006Z,5.29
2017-12-26T02:55:56.620Z,5.28
2017-12-26T02:56:37.210Z,5.29
2017-12-26T02:57:17.782Z,5.29
2017-12-26T02:57:58.398Z,5.23
2017-12-26T02:58:38.955Z,5.28
2017-12-26T02:59:19.539Z,5.21
2017-12-26T03:00:00.124Z,5.28
2017-12-26T03:00:40.714Z,5.23
2017-12-26T03:01:21.284Z,5.23
2017-12-26T03:02:01.842Z,5.23
2017-12-26T03:02:42.431Z,5.28
2017-12-26T03:03:23.010Z,5.2
2017-12-26T03:04:03.599Z,5.17
2017-12-26T03:04:44.215Z,5.17
2017-12-26T03:05:24.830Z,5.17
2017-12-26T03:06:05.392Z,5.17
2017-12-26T03:06:45.967Z,5.15
2017-12-26T03:07:26.582Z,5.12
2017-12-26T03:08:07.131Z,5.25
2017-12-26T03:08:47.726Z,5.18
2017-12-26T03:09:28.298Z,5.21
2017-12-26T03:10:08.885Z,5.23
2017-12-26T03:10:49.470Z,5.21
2017-12-26T03:11:30.100Z,5.2
2017-12-26T03:12:10.685Z,5.11
2017-12-26T03:12:51.254Z,5.14
2017-12-26T03:13:31.850Z,5.1
2017-12-26T03:14:12.438Z,5.1
2017-12-26T03:14:53.036Z,5.04
2017-12-26T03:15:33.642Z,5.07
2017-12-26T03:16:14.245Z,5.08
2017-12-26T03:16:54.831Z,5.08
2017-12-26T03:17:35.411Z,5.05
2017-12-26T03:18:16.013Z,5.1
2017-12-26T03:18:56.613Z,5.08
2017-12-26T03:19:37.208Z,5.05
2017-12-26T03:20:17.801Z,4.99
2017-12-26T03:20:58.370Z,5.02
2017-12-26T03:21:38.976Z,4.99
2017-12-26T03:22:19.539Z,4.97
2017-12-26T03:23:00.100Z,4.97
2017-12-26T03:23:40.735Z,5
2017-12-26T03:24:21.308Z,4.99
2017-12-26T03:25:01.887Z,5
2017-12-26T03:25:42.463Z,4.97
2017-12-26T03:26:23.058Z,5.02
2017-12-26T03:27:03.648Z,4.97
2017-12-26T03:27:44.243Z,4.9
2017-12-26T03:28:24.806Z,4.97
2017-12-26T03:29:05.388Z,4.92
2017-12-26T03:29:46.023Z,4.96
2017-12-26T03:30:26.632Z,4.96
2017-12-26T03:31:07.197Z,4.97
2017-12-26T03:31:47.752Z,4.93
2017-12-26T03:32:28.333Z,4.92
2017-12-26T03:33:08.927Z,5.05
2017-12-26T03:33:49.497Z,5.05
2017-12-26T03:34:30.082Z,4.94
2017-12-26T03:35:10.669Z,5.07
2017-12-26T03:35:51.245Z,5.05
2017-12-26T03:36:31.822Z,5.02
2017-12-26T03:37:12.422Z,4.94
2017-12-26T03:37:53.004Z,5
2017-12-26T03:38:33.576Z,4.94
2017-12-26T03:39:14.149Z,5.02
2017-12-26T03:39:54.744Z,5.02
2017-12-26T03:40:35.319Z,5.02
2017-12-26T03:41:15.917Z,4.92
2017-12-26T03:41:56.516Z,4.97
2017-12-26T03:42:37.123Z,4.99
2017-12-26T03:43:17.701Z,5
2017-12-26T03:43:58.270Z,5
2017-12-26T03:44:38.844Z,5.04
2017-12-26T03:45:19.445Z,5.04
2017-12-26T03:46:00.017Z,5
2017-12-26T03:46:40.601Z,4.99
2017-12-26T03:47:21.210Z,4.97
2017-12-26T03:48:01.811Z,5
2017-12-26T03:48:42.375Z,5.02
2017-12-26T03:49:22.970Z,5
2017-12-26T03:50:03.563Z,5.1
2017-12-26T03:50:44.135Z,5.02
2017-12-26T03:51:24.730Z,4.99
2017-12-26T03:52:05.293Z,5.04
2017-12-26T03:52:45.851Z,5.08
2017-12-26T03:53:26.434Z,5.1
2017-12-26T03:54:07.006Z,5
2017-12-26T03:54:47.577Z,5
2017-12-26T03:55:28.175Z,5.02
2017-12-26T03:56:08.777Z,5
2017-12-26T03:56:49.402Z,5
2017-12-26T03:57:30.020Z,4.97
2017-12-26T03:58:10.590Z,5.02
2017-12-26T03:58:51.195Z,4.99
2017-12-26T03:59:31.753Z,5
2017-12-26T04:00:12.342Z,5.07
2017-12-26T04:00:52.926Z,5.12
2017-12-26T04:01:33.491Z,5.1
2017-12-26T04:02:14.064Z,5.04
2017-12-26T04:02:54.640Z,5.12
2017-12-26T04:03:41.142Z,5.1
2017-12-26T04:04:21.746Z,5.15
2017-12-26T04:06:27.079Z,5.15
2017-12-26T04:07:07.633Z,5.12
2017-12-26T04:07:48.201Z,5.04
2017-12-26T04:08:28.757Z,5.08
2017-12-26T04:09:09.341Z,5.08
2017-12-26T04:09:49.922Z,5.05
2017-12-26T04:10:30.505Z,5.1
2017-12-26T04:11:11.061Z,5.11
2017-12-26T04:11:51.625Z,5.1
2017-12-26T04:12:32.181Z,5.1
2017-12-26T04:13:12.793Z,5.05
2017-12-26T04:13:53.365Z,5.07
2017-12-26T04:14:33.942Z,5.14
2017-12-26T04:15:14.524Z,5.08
2017-12-26T04:15:55.106Z,5.05
2017-12-26T04:16:35.660Z,5.14
2017-12-26T04:17:16.276Z,5.12
2017-12-26T04:17:56.859Z,5.08
2017-12-26T04:18:37.427Z,5.04
2017-12-26T04:19:17.983Z,5.14
2017-12-26T04:19:58.548Z,5.2
2017-12-26T04:20:39.157Z,5.12
2017-12-26T04:21:19.717Z,5.15
2017-12-26T04:22:00.300Z,5.17
2017-12-26T04:22:40.903Z,5.14
2017-12-26T04:23:21.482Z,5.15
2017-12-26T04:24:02.048Z,5.15
2017-12-26T04:24:42.644Z,5.15
2017-12-26T04:25:23.258Z,5.21
2017-12-26T04:26:03.847Z,5.17
2017-12-26T04:26:44.450Z,5.12
2017-12-26T04:27:25.006Z,5.2
2017-12-26T04:28:05.577Z,5.17
2017-12-26T04:28:46.151Z,5.17
2017-12-26T04:29:26.723Z,5.15
2017-12-26T04:30:07.309Z,5.15
2017-12-26T04:30:47.906Z,5.21
2017-12-26T04:31:28.499Z,5.1
2017-12-26T04:32:09.095Z,5.1
2017-12-26T04:32:49.667Z,5.02
2017-12-26T04:33:30.265Z,5.1
2017-12-26T04:34:10.917Z,5.02
2017-12-26T04:34:51.526Z,5.11
2017-12-26T04:35:32.126Z,5.05
2017-12-26T04:36:12.720Z,5.12
2017-12-26T04:36:53.307Z,5.18
2017-12-26T04:37:33.877Z,5.17
2017-12-26T04:38:14.472Z,5.14
2017-12-26T04:38:55.060Z,5.14
2017-12-26T04:39:35.639Z,5.14
2017-12-26T04:40:16.198Z,5.18
2017-12-26T04:40:56.773Z,5.23
2017-12-26T04:41:37.371Z,5.14
2017-12-26T04:42:17.947Z,5.17
2017-12-26T04:42:58.504Z,5.18
2017-12-26T04:43:39.077Z,5.2
2017-12-26T04:44:19.649Z,5.18
2017-12-26T04:45:00.213Z,5.14
2017-12-26T04:45:40.785Z,5.14
2017-12-26T04:46:21.347Z,5.15
2017-12-26T04:47:01.899Z,5.11
2017-12-26T04:47:42.454Z,5.2
2017-12-26T04:48:23.045Z,5.23
2017-12-26T04:49:03.638Z,5.1
2017-12-26T04:49:44.212Z,5.17
2017-12-26T04:50:24.853Z,5.11
2017-12-26T04:51:05.444Z,5.08
2017-12-26T04:51:46.071Z,5.12
2017-12-26T04:52:26.610Z,5.18
2017-12-26T04:53:07.183Z,5.05
2017-12-26T04:53:47.765Z,5.07
2017-12-26T04:54:28.361Z,5.07
2017-12-26T04:55:08.928Z,5.07
2017-12-26T04:55:49.503Z,5.07
2017-12-26T04:56:30.061Z,5.08
2017-12-26T04:57:10.643Z,5
2017-12-26T04:57:51.216Z,5.08
2017-12-26T04:58:31.789Z,5.05
2017-12-26T04:59:12.375Z,4.99
2017-12-26T04:59:52.941Z,5.07
2017-12-26T05:00:33.511Z,5.07
2017-12-26T05:01:14.094Z,5.04
2017-12-26T05:01:54.682Z,5.02
2017-12-26T05:02:35.248Z,5.14
2017-12-26T05:03:15.821Z,5.1
2017-12-26T05:03:56.382Z,5.08
2017-12-26T05:04:36.961Z,5.08
2017-12-26T05:05:17.523Z,4.99
2017-12-26T05:05:58.092Z,5.1
2017-12-26T05:06:38.702Z,4.96
2017-12-26T05:07:19.268Z,5.04
2017-12-26T05:07:59.842Z,5.02
2017-12-26T05:08:40.422Z,4.92
2017-12-26T05:09:21.033Z,4.92
2017-12-26T05:10:01.643Z,4.86
2017-12-26T05:10:42.234Z,4.94
2017-12-26T05:11:22.809Z,4.93
2017-12-26T05:12:03.392Z,4.92
2017-12-26T05:12:43.979Z,4.9
2017-12-26T05:13:24.590Z,5.04
2017-12-26T05:14:05.211Z,4.97
2017-12-26T05:14:45.782Z,5.07
2017-12-26T05:15:26.371Z,5
2017-12-26T05:16:06.956Z,4.93
2017-12-26T05:16:47.546Z,4.96
2017-12-26T05:17:28.120Z,4.94
2017-12-26T05:18:08.693Z,4.94
2017-12-26T05:18:49.262Z,4.94
2017-12-26T05:19:29.864Z,4.96
2017-12-26T05:20:10.447Z,4.97
2017-12-26T05:20:51.049Z,4.99
2017-12-26T05:21:31.602Z,4.96
2017-12-26T05:22:12.158Z,4.93
2017-12-26T05:22:52.732Z,4.96
2017-12-26T05:23:33.341Z,4.94
2017-12-26T05:24:13.935Z,5.05
2017-12-26T05:24:54.520Z,5.02
2017-12-26T05:25:35.077Z,5.04
2017-12-26T05:26:15.655Z,5.04
2017-12-26T05:26:56.229Z,5
2017-12-26T05:27:36.838Z,5.08
2017-12-26T05:28:17.412Z,5
2017-12-26T05:28:57.979Z,4.94
2017-12-26T05:29:38.561Z,5
2017-12-26T05:30:19.128Z,5
2017-12-26T05:30:59.699Z,5
2017-12-26T05:31:40.289Z,5
2017-12-26T05:32:20.861Z,5.07
2017-12-26T05:33:01.428Z,5.02
2017-12-26T05:33:42.023Z,4.94
2017-12-26T05:34:22.599Z,5.05
2017-12-26T05:35:03.174Z,4.92
2017-12-26T05:35:43.760Z,4.96
2017-12-26T05:36:24.349Z,4.9
2017-12-26T05:37:04.975Z,4.92
2017-12-26T05:37:45.573Z,4.94
2017-12-26T05:38:26.156Z,4.94
2017-12-26T05:39:06.764Z,4.93
2017-12-26T05:39:47.351Z,4.96
2017-12-26T05:40:27.913Z,4.94
2017-12-26T05:41:08.475Z,4.97
2017-12-26T05:41:49.094Z,4.93
2017-12-26T05:42:29.672Z,4.94
2017-12-26T05:43:10.271Z,4.92
2017-12-26T05:43:50.844Z,4.97
2017-12-26T05:44:31.424Z,5.02
2017-12-26T05:45:12.037Z,5.02
2017-12-26T05:45:52.640Z,5.07
2017-12-26T05:46:33.219Z,5.04
2017-12-26T05:47:13.787Z,5
2017-12-26T05:47:54.358Z,4.96
2017-12-26T05:48:34.966Z,4.99
2017-12-26T05:49:15.547Z,5.07
2017-12-26T05:49:56.141Z,5.07
2017-12-26T05:50:36.735Z,5.05
2017-12-26T05:51:17.297Z,4.97
2017-12-26T05:51:57.869Z,5.08
2017-12-26T05:52:38.444Z,5.05
2017-12-26T05:53:19.021Z,5.15
2017-12-26T05:53:59.572Z,5.07
2017-12-26T05:54:40.142Z,5.05
2017-12-26T05:55:20.699Z,5.02
2017-12-26T05:56:01.296Z,5.07
2017-12-26T05:56:41.893Z,5.07
2017-12-26T05:57:22.491Z,5.1
2017-12-26T05:58:03.070Z,5.07
2017-12-26T05:58:43.657Z,5.08
2017-12-26T05:59:24.246Z,5.08
2017-12-26T06:00:04.862Z,5.04
2017-12-26T06:00:45.477Z,5.05
2017-12-26T06:01:26.066Z,5.07
2017-12-26T06:02:06.630Z,5.1
2017-12-26T06:02:47.185Z,5.11
2017-12-26T06:03:27.851Z,5.04
2017-12-26T06:04:08.395Z,5.12
2017-12-26T06:04:48.960Z,5
2017-12-26T06:05:29.543Z,5.08
2017-12-26T06:06:10.133Z,5.1
2017-12-26T06:06:50.762Z,5.08
2017-12-26T06:07:31.334Z,4.97
2017-12-26T06:08:11.929Z,5.05
2017-12-26T06:08:52.498Z,4.96
2017-12-26T06:09:33.078Z,5.08
2017-12-26T06:10:13.663Z,5.04
2017-12-26T06:10:54.252Z,5.05
2017-12-26T06:11:34.862Z,5.07
2017-12-26T06:12:15.450Z,5.1
2017-12-26T06:12:56.014Z,5.11
2017-12-26T06:13:36.586Z,5.04
2017-12-26T06:14:17.142Z,5.1
2017-12-26T06:14:57.722Z,5.04
2017-12-26T06:15:38.316Z,5.02
2017-12-26T06:16:18.922Z,4.97
2017-12-26T06:16:59.500Z,4.97
2017-12-26T06:17:40.049Z,5.02
2017-12-26T06:18:20.626Z,4.94
2017-12-26T06:19:01.197Z,4.97
2017-12-26T06:19:41.777Z,5
2017-12-26T06:20:22.360Z,5.07
2017-12-26T06:21:02.922Z,5.02
2017-12-26T06:21:43.514Z,4.97
2017-12-26T06:22:24.081Z,4.99
2017-12-26T06:23:04.726Z,5.04
2017-12-26T06:23:45.276Z,4.97
2017-12-26T06:24:25.869Z,5.05
2017-12-26T06:25:06.469Z,4.96
2017-12-26T06:25:47.048Z,5
2017-12-26T06:26:27.624Z,5.02
2017-12-26T06:27:08.212Z,5.07
2017-12-26T06:27:48.778Z,5.07
2017-12-26T06:28:29.352Z,5.1
2017-12-26T06:29:09.977Z,5.1
2017-12-26T06:29:50.553Z,4.96
2017-12-26T06:30:31.167Z,5
2017-12-26T06:31:11.758Z,5.05
2017-12-26T06:31:52.356Z,5.04
2017-12-26T06:32:32.932Z,5.02
2017-12-26T06:33:13.509Z,4.97
2017-12-26T06:33:54.040Z,5.12
2017-12-26T06:34:34.613Z,5.1
2017-12-26T06:35:15.167Z,5.12
2017-12-26T06:35:55.755Z,5.07
2017-12-26T06:36:36.331Z,5.05
2017-12-26T06:37:16.900Z,5.1
2017-12-26T06:37:57.506Z,5.11
2017-12-26T06:38:38.097Z,5.08
2017-12-26T06:39:18.672Z,5.11
2017-12-26T06:39:59.247Z,5.08
2017-12-26T06:40:39.858Z,5.02
2017-12-26T06:41:20.464Z,5.11
2017-12-26T06:42:01.051Z,5.11
2017-12-26T06:42:41.626Z,5.02
2017-12-26T06:43:22.261Z,5.11
2017-12-26T06:44:02.861Z,5.12
2017-12-26T06:44:43.479Z,5.08
2017-12-26T06:45:24.087Z,5.07
2017-12-26T06:46:04.674Z,5.08
2017-12-26T06:46:45.238Z,5.12
2017-12-26T06:47:25.804Z,5.02
2017-12-26T06:48:06.375Z,5.05
2017-12-26T06:48:46.954Z,5.05
2017-12-26T06:49:27.527Z,5.08
2017-12-26T06:50:08.092Z,5.11
2017-12-26T06:50:48.647Z,5.18
2017-12-26T06:51:29.220Z,5.07
2017-12-26T06:52:09.803Z,5.11
2017-12-26T06:52:50.392Z,5.1
2017-12-26T06:53:30.932Z,5.1
2017-12-26T06:54:11.510Z,5.1
2017-12-26T06:54:52.066Z,5.07
2017-12-26T06:55:32.648Z,5.1
2017-12-26T06:56:13.242Z,5.07
2017-12-26T06:56:53.875Z,5.02
2017-12-26T06:57:34.447Z,5.07
2017-12-26T06:58:15.064Z,5
2017-12-26T06:58:55.647Z,5.04
2017-12-26T06:59:36.194Z,5
2017-12-26T07:00:16.758Z,5
2017-12-26T07:00:57.324Z,5.02
2017-12-26T07:01:37.898Z,5.04
2017-12-26T07:02:18.485Z,4.97
2017-12-26T07:02:59.066Z,5
2017-12-26T07:03:39.651Z,5.02
2017-12-26T07:04:20.267Z,5.07
2017-12-26T07:05:00.889Z,5.04
2017-12-26T07:05:41.513Z,4.96
2017-12-26T07:06:22.086Z,5.05
2017-12-26T07:07:02.651Z,5
2017-12-26T07:07:43.225Z,5.02
2017-12-26T07:08:23.821Z,5.02
2017-12-26T07:09:04.397Z,5.05
2017-12-26T07:09:44.981Z,4.99
2017-12-26T07:10:25.550Z,5.05
2017-12-26T07:11:06.160Z,4.96
2017-12-26T07:11:46.749Z,5.07
2017-12-26T07:12:27.308Z,4.92
2017-12-26T07:13:07.867Z,4.93
2017-12-26T07:13:48.434Z,4.97
2017-12-26T07:14:29.021Z,4.9
2017-12-26T07:15:09.622Z,4.99
2017-12-26T07:15:50.228Z,5
2017-12-26T07:16:30.806Z,4.96
2017-12-26T07:17:11.382Z,4.96
2017-12-26T07:17:51.986Z,4.94
2017-12-26T07:18:32.608Z,4.96
2017-12-26T07:19:13.191Z,4.94
2017-12-26T07:19:53.772Z,4.93
2017-12-26T07:20:34.364Z,4.94
2017-12-26T07:21:15.703Z,5
2017-12-26T07:21:56.281Z,4.94
2017-12-26T07:22:36.870Z,4.96
2017-12-26T07:23:17.453Z,4.96
2017-12-26T07:23:58.042Z,4.96
2017-12-26T07:24:38.663Z,5
2017-12-26T07:25:19.275Z,4.97
2017-12-26T07:25:59.860Z,4.94
2017-12-26T07:26:40.450Z,5
2017-12-26T07:27:21.035Z,4.9
2017-12-26T07:28:01.652Z,4.9
2017-12-26T07:28:42.241Z,4.94
2017-12-26T07:29:22.832Z,4.96
2017-12-26T07:30:03.436Z,4.9
2017-12-26T07:30:44.051Z,4.93
2017-12-26T07:31:24.638Z,4.86
2017-12-26T07:32:05.254Z,4.87
2017-12-26T07:32:45.864Z,4.96
2017-12-26T07:33:26.452Z,4.96
2017-12-26T07:34:07.024Z,4.92
2017-12-26T07:34:47.605Z,4.94
2017-12-26T07:35:28.224Z,4.99
2017-12-26T07:36:08.820Z,4.93
2017-12-26T07:36:49.410Z,4.97
2017-12-26T07:37:30.054Z,4.99
2017-12-26T07:38:10.592Z,4.9
2017-12-26T07:38:51.152Z,4.92
2017-12-26T07:39:31.741Z,5.02
2017-12-26T07:40:12.348Z,5
2017-12-26T07:40:52.960Z,5
2017-12-26T07:41:33.549Z,4.94
2017-12-26T07:42:14.150Z,4.97
2017-12-26T07:42:54.720Z,5.08
2017-12-26T07:43:35.287Z,5.04
2017-12-26T07:44:15.871Z,5.02
2017-12-26T07:44:56.453Z,5
2017-12-26T07:45:37.096Z,5
2017-12-26T07:46:17.691Z,5.04
2017-12-26T07:46:58.286Z,5.08
2017-12-26T07:47:38.891Z,5
2017-12-26T07:48:19.454Z,5.07
2017-12-26T07:49:00.056Z,5.08
2017-12-26T07:49:40.640Z,5.08
2017-12-26T07:50:21.232Z,5.02
2017-12-26T07:51:01.795Z,5.07
2017-12-26T07:51:42.369Z,5.1
2017-12-26T07:52:22.979Z,5.08
2017-12-26T07:53:03.587Z,5.12
2017-12-26T07:53:44.175Z,5.15
2017-12-26T07:54:24.806Z,5.08
2017-12-26T07:55:05.373Z,5.05
2017-12-26T07:55:45.962Z,5.07
2017-12-26T07:56:26.547Z,5.14
2017-12-26T07:57:07.174Z,5.15
2017-12-26T07:57:47.726Z,5.14
2017-12-26T07:58:28.296Z,5.21
2017-12-26T07:59:08.890Z,5.17
2017-12-26T07:59:49.477Z,5.21
2017-12-26T08:00:30.059Z,5.2
2017-12-26T08:01:10.718Z,5.15
2017-12-26T08:01:51.331Z,5.18
2017-12-26T08:02:31.887Z,5.17
2017-12-26T08:03:12.474Z,5.2
2017-12-26T08:03:53.043Z,5.15
2017-12-26T08:04:33.643Z,5.1
2017-12-26T08:05:14.274Z,5.15
2017-12-26T08:05:54.856Z,5.11
2017-12-26T08:06:35.426Z,5.14
2017-12-26T08:07:15.998Z,5.15
2017-12-26T08:07:56.575Z,5.17
2017-12-26T08:08:37.146Z,5.1
2017-12-26T08:09:17.718Z,5.1
2017-12-26T08:09:58.291Z,5.08
2017-12-26T08:10:38.905Z,5.15
2017-12-26T08:11:19.491Z,5.15
2017-12-26T08:12:00.077Z,5.17
2017-12-26T08:12:40.673Z,5.04
2017-12-26T08:13:21.251Z,5.12
2017-12-26T08:14:01.847Z,5.17
2017-12-26T08:14:42.428Z,5.18
2017-12-26T08:15:23.008Z,5.2
2017-12-26T08:16:03.629Z,5.21
2017-12-26T08:16:44.195Z,5.23
2017-12-26T08:17:24.791Z,5.28
2017-12-26T08:18:05.400Z,5.23
2017-12-26T08:18:45.980Z,5.18
2017-12-26T08:19:26.592Z,5.28
2017-12-26T08:20:07.156Z,5.26
2017-12-26T08:20:47.737Z,5.23
2017-12-26T08:21:28.396Z,5.21
2017-12-26T08:22:08.982Z,5.28
2017-12-26T08:22:49.557Z,5.26
2017-12-26T08:23:30.132Z,5.29
2017-12-26T08:24:10.700Z,5.32
2017-12-26T08:24:51.294Z,5.33
2017-12-26T08:25:31.874Z,5.3
2017-12-26T08:26:12.442Z,5.29
2017-12-26T08:26:53.025Z,5.32
2017-12-26T08:27:33.616Z,5.32
2017-12-26T08:28:14.202Z,5.35
2017-12-26T08:28:54.790Z,5.32
2017-12-26T08:29:35.372Z,5.35
2017-12-26T08:30:15.980Z,5.35
2017-12-26T08:30:56.513Z,5.36
2017-12-26T08:31:37.136Z,5.33
2017-12-26T08:32:17.717Z,5.32
2017-12-26T08:32:58.325Z,5.36
2017-12-26T08:33:38.936Z,5.33
2017-12-26T08:34:19.543Z,5.29
2017-12-26T08:35:00.147Z,5.28
2017-12-26T08:35:40.725Z,5.35
2017-12-26T08:36:21.303Z,5.3
2017-12-26T08:37:01.892Z,5.35
2017-12-26T08:37:42.476Z,5.35
2017-12-26T08:38:23.039Z,5.38
2017-12-26T08:39:03.616Z,5.28
2017-12-26T08:39:44.187Z,5.36
2017-12-26T08:40:24.784Z,5.29
2017-12-26T08:41:05.372Z,5.43
2017-12-26T08:41:45.957Z,5.41
2017-12-26T08:42:26.530Z,5.32
2017-12-26T08:43:07.133Z,5.38
2017-12-26T08:43:47.699Z,5.39
2017-12-26T08:44:28.276Z,5.41
2017-12-26T08:45:08.838Z,5.38
2017-12-26T08:45:49.413Z,5.32
2017-12-26T08:46:29.993Z,5.41
2017-12-26T08:47:10.597Z,5.48
2017-12-26T08:47:51.183Z,5.36
2017-12-26T08:48:31.784Z,5.41
2017-12-26T08:49:12.350Z,5.39
2017-12-26T08:49:53.035Z,5.43
2017-12-26T08:50:33.641Z,5.48
2017-12-26T08:51:14.243Z,5.41
2017-12-26T08:51:54.854Z,5.41
2017-12-26T08:52:35.447Z,5.48
2017-12-26T08:53:16.032Z,5.35
2017-12-26T08:53:56.649Z,5.41
2017-12-26T08:54:37.235Z,5.43
2017-12-26T08:55:17.851Z,5.39
2017-12-26T08:55:58.433Z,5.5
2017-12-26T08:56:38.994Z,5.47
2017-12-26T08:57:19.626Z,5.47
2017-12-26T08:58:00.201Z,5.39
2017-12-26T08:58:40.795Z,5.41
2017-12-26T08:59:21.370Z,5.48
2017-12-26T09:00:01.973Z,5.44
2017-12-26T09:00:42.548Z,5.39
2017-12-26T09:01:23.145Z,5.48
2017-12-26T09:02:03.718Z,5.38
2017-12-26T09:02:44.341Z,5.41
2017-12-26T09:03:24.967Z,5.43
2017-12-26T09:04:05.549Z,5.44
2017-12-26T09:04:46.114Z,5.48
2017-12-26T09:05:26.688Z,5.41
2017-12-26T09:06:07.261Z,5.47